Arches Natl Park, Utah
Current Conditions -  °F | °C
As of 7:53 PM on Saturday 20 Dec 2014 (Local Time) from KCNY Reporting Station
Overcast Overcast  
Wind Chill: 32°   Ceiling: 2000
Heat Index: 36°   Visibility: 10mi
Dew Point: 32°   Wind: 5mph
Humidity: 86%   Direction: 320°NW
Pressure: 30.12"   Gusts: NA
Location:  38.7°N, 109.75°W
Report Text: KCNY 210253Z AUTO 32004KT 10SM OVC020 02/00 A3012 RMK AO2 SLP218 T00220000 53003
Loading
Personal Weather Stations






























Interactive Weather Map New forecast layout! Learn more

10-Day Weather Forecast

Advertisements
Track Severe Weather on mobile